createdAt,value
2023-02-09T00:02:20.482Z,101580.13
2023-02-09T00:05:23.211Z,101582.47
2023-02-09T00:08:26.186Z,101578.71
2023-02-09T00:11:48.604Z,101576.40
2023-02-09T00:14:51.269Z,101566.36
2023-02-09T00:17:53.916Z,101568.33
2023-02-09T00:21:00.964Z,101566.02
2023-02-09T00:24:04.322Z,101567.86
2023-02-09T00:27:07.052Z,101563.98
2023-02-09T00:30:10.107Z,101561.83
2023-02-09T00:33:41.015Z,101563.46
2023-02-09T00:36:44.328Z,101560.95
2023-02-09T00:39:47.038Z,101560.94
2023-02-09T00:42:49.657Z,101560.13
2023-02-09T00:45:53.214Z,101554.23
2023-02-09T00:48:56.934Z,101554.30
2023-02-09T00:51:59.634Z,101549.35
2023-02-09T00:55:02.293Z,101546.98
2023-02-09T00:58:05.026Z,101543.91
2023-02-09T01:01:10.064Z,101537.83
2023-02-09T01:04:12.825Z,101533.17
2023-02-09T01:07:15.676Z,101535.55
2023-02-09T01:10:18.347Z,101527.21
2023-02-09T01:13:20.957Z,101524.38
2023-02-09T01:16:24.361Z,101526.07
2023-02-09T01:19:27.179Z,101524.24
2023-02-09T01:22:30.681Z,101520.79
2023-02-09T01:25:33.535Z,101513.73
2023-02-09T01:28:36.914Z,101512.20
2023-02-09T01:31:39.668Z,101510.04
2023-02-09T01:34:42.378Z,101507.16
2023-02-09T01:37:45.079Z,101505.38
2023-02-09T01:40:48.529Z,101504.98
2023-02-09T01:44:02.433Z,101501.21
2023-02-09T01:47:05.139Z,101503.04
2023-02-09T01:50:08.034Z,101497.89
2023-02-09T01:53:10.823Z,101493.39
2023-02-09T01:56:17.335Z,101486.23
2023-02-09T01:59:21.089Z,101480.58
2023-02-09T02:02:24.101Z,101477.66
2023-02-09T02:05:28.060Z,101474.59
2023-02-09T02:08:34.139Z,101472.98
2023-02-09T02:11:37.897Z,101470.59
2023-02-09T02:14:40.618Z,101469.65
2023-02-09T02:17:46.171Z,101461.25
2023-02-09T02:21:07.642Z,101457.05
2023-02-09T02:24:29.349Z,101459.59
2023-02-09T02:27:47.272Z,101446.52
2023-02-09T02:30:57.452Z,101445.77
2023-02-09T02:34:04.687Z,101444.27
2023-02-09T02:37:13.409Z,101441.27
2023-02-09T02:40:24.114Z,101435.09
2023-02-09T02:44:02.572Z,101431.65
2023-02-09T02:47:07.938Z,101428.89
2023-02-09T02:50:13.034Z,101423.38
2023-02-09T02:53:17.552Z,101417.80
2023-02-09T02:56:23.076Z,101415.83
2023-02-09T02:59:29.591Z,101419.54
2023-02-09T03:02:34.960Z,101418.05
2023-02-09T03:05:38.660Z,101414.36
2023-02-09T03:08:49.191Z,101412.90
2023-02-09T03:11:54.762Z,101409.27
2023-02-09T03:15:15.797Z,101405.33
2023-02-09T03:18:34.341Z,101406.04
2023-02-09T03:21:39.860Z,101406.45
2023-02-09T03:24:54.634Z,101405.89
2023-02-09T03:28:01.715Z,101404.14
2023-02-09T03:31:05.328Z,101401.95
2023-02-09T03:34:09.785Z,101397.34
2023-02-09T03:37:12.545Z,101394.13
2023-02-09T03:40:15.210Z,101391.28
2023-02-09T03:43:17.900Z,101386.64
2023-02-09T03:46:20.697Z,101378.64
2023-02-09T03:49:23.910Z,101375.77
2023-02-09T03:52:26.536Z,101380.12
2023-02-09T03:55:29.183Z,101381.11
2023-02-09T03:58:32.290Z,101376.46
2023-02-09T04:01:34.897Z,101371.01
2023-02-09T04:04:37.572Z,101364.21
2023-02-09T04:07:40.209Z,101357.64
2023-02-09T04:10:43.021Z,101356.33
2023-02-09T04:13:45.819Z,101349.34
2023-02-09T04:16:48.640Z,101338.60
2023-02-09T04:19:51.297Z,101341.15
2023-02-09T04:22:53.974Z,101338.34
2023-02-09T04:25:56.650Z,101335.64
2023-02-09T04:28:59.306Z,101333.15
2023-02-09T04:32:02.070Z,101327.19
2023-02-09T04:35:04.932Z,101326.26
2023-02-09T04:38:07.668Z,101330.16
2023-02-09T04:41:10.440Z,101330.83
2023-02-09T04:44:13.329Z,101338.29
2023-02-09T04:47:16.007Z,101334.15
2023-02-09T04:50:18.678Z,101328.16
2023-02-09T04:53:22.020Z,101327.50
2023-02-09T04:56:24.683Z,101327.55
2023-02-09T04:59:36.223Z,101328.23
2023-02-09T05:02:38.882Z,101324.56
2023-02-09T05:05:42.164Z,101321.39
2023-02-09T05:08:44.815Z,101319.22
2023-02-09T05:11:47.519Z,101319.40
2023-02-09T05:14:50.404Z,101321.91
2023-02-09T05:17:53.086Z,101319.65
2023-02-09T05:20:55.712Z,101318.16
2023-02-09T05:23:58.318Z,101320.98
2023-02-09T05:27:00.929Z,101318.14
2023-02-09T05:30:03.956Z,101317.14
2023-02-09T05:33:06.571Z,101316.56
2023-02-09T05:36:09.825Z,101317.98
2023-02-09T05:39:12.616Z,101315.54
2023-02-09T05:42:15.270Z,101310.05
2023-02-09T05:45:18.033Z,101308.88
2023-02-09T05:48:20.661Z,101310.09
2023-02-09T05:51:23.274Z,101310.16
2023-02-09T05:54:25.959Z,101310.22
2023-02-09T05:57:28.622Z,101311.67
2023-02-09T06:00:31.450Z,101307.58
2023-02-09T06:03:34.121Z,101298.75
2023-02-09T06:06:36.877Z,101296.33
2023-02-09T06:09:39.532Z,101283.31
2023-02-09T06:12:42.177Z,101278.70
2023-02-09T06:15:44.849Z,101281.12
2023-02-09T06:18:47.706Z,101279.61
2023-02-09T06:21:50.353Z,101277.30
2023-02-09T06:24:53.127Z,101279.16
2023-02-09T06:27:55.811Z,101284.13
2023-02-09T06:30:58.570Z,101282.27
2023-02-09T06:34:01.492Z,101279.23
2023-02-09T06:37:04.180Z,101279.24
2023-02-09T06:40:06.955Z,101276.90
2023-02-09T06:43:09.583Z,101272.73
2023-02-09T06:46:13.426Z,101268.52
2023-02-09T06:49:16.150Z,101266.31
2023-02-09T06:52:18.827Z,101271.73
2023-02-09T06:55:21.508Z,101277.35
2023-02-09T06:58:24.106Z,101274.57
2023-02-09T07:01:27.010Z,101269.27
2023-02-09T07:04:29.674Z,101267.65
2023-02-09T07:07:32.357Z,101265.17
2023-02-09T07:10:35.369Z,101267.70
2023-02-09T07:13:38.722Z,101270.27
2023-02-09T07:16:41.868Z,101267.69
2023-02-09T07:19:44.527Z,101265.87
2023-02-09T07:22:47.195Z,101264.58
2023-02-09T07:25:50.055Z,101253.87
2023-02-09T07:28:52.768Z,101246.35
2023-02-09T07:31:55.404Z,101246.15
2023-02-09T07:34:58.481Z,101248.21
2023-02-09T07:38:01.119Z,101249.30
2023-02-09T07:41:05.103Z,101248.69
2023-02-09T07:44:09.408Z,101255.50
2023-02-09T07:47:12.059Z,101253.80
2023-02-09T07:50:14.720Z,101252.52
2023-02-09T07:53:17.333Z,101246.90
2023-02-09T07:56:20.227Z,101242.70
2023-02-09T07:59:23.167Z,101238.98
2023-02-09T08:02:28.423Z,101240.67
2023-02-09T08:05:45.069Z,101232.48
2023-02-09T08:08:48.940Z,101225.18
2023-02-09T08:11:58.143Z,101224.56
2023-02-09T08:15:01.016Z,101223.33
2023-02-09T08:18:06.776Z,101225.23
2023-02-09T08:21:11.530Z,101222.95
2023-02-09T08:24:14.808Z,101223.16
2023-02-09T08:27:17.410Z,101222.34
2023-02-09T08:30:20.423Z,101222.36
2023-02-09T08:33:23.210Z,101219.40
2023-02-09T08:36:26.063Z,101217.42
2023-02-09T08:39:28.711Z,101213.23
2023-02-09T08:42:31.345Z,101206.17
2023-02-09T08:45:37.786Z,101211.09
2023-02-09T08:48:41.701Z,101209.52
2023-02-09T08:51:44.333Z,101201.94
2023-02-09T08:54:47.017Z,101205.59
2023-02-09T08:57:49.631Z,101202.90
2023-02-09T09:00:53.116Z,101199.48
2023-02-09T09:03:56.259Z,101198.11
2023-02-09T09:06:59.065Z,101193.17
2023-02-09T09:10:01.790Z,101195.83
2023-02-09T09:13:04.412Z,101196.41
2023-02-09T09:16:07.638Z,101203.23
2023-02-09T09:19:10.461Z,101201.05
2023-02-09T09:22:13.138Z,101198.68
2023-02-09T09:25:15.921Z,101193.80
2023-02-09T09:28:18.649Z,101189.73
2023-02-09T09:31:21.627Z,101193.14
2023-02-09T09:34:24.562Z,101192.73
2023-02-09T09:37:27.183Z,101192.19
2023-02-09T09:40:31.806Z,101193.10
2023-02-09T09:43:39.755Z,101185.28
2023-02-09T09:46:48.497Z,101183.67
2023-02-09T09:49:51.208Z,101177.86
2023-02-09T09:53:01.017Z,101185.73
2023-02-09T09:56:06.411Z,101179.94
2023-02-09T09:59:17.259Z,101171.73
2023-02-09T10:02:30.529Z,101162.98
2023-02-09T10:05:37.747Z,101161.06
2023-02-09T10:08:46.772Z,101156.55
2023-02-09T10:11:53.626Z,101155.22
2023-02-09T10:14:56.281Z,101147.00
2023-02-09T10:17:59.326Z,101142.39
2023-02-09T10:21:06.641Z,101133.10
2023-02-09T10:24:37.210Z,101126.54
2023-02-09T10:27:45.544Z,101121.35
2023-02-09T10:30:50.551Z,101110.75
2023-02-09T10:33:58.119Z,101105.88
2023-02-09T10:37:20.966Z,101101.35
2023-02-09T10:40:28.231Z,101094.12
2023-02-09T10:43:32.575Z,101087.11
2023-02-09T10:46:37.648Z,101085.29
2023-02-09T10:49:40.492Z,101074.11
2023-02-09T10:52:57.120Z,101071.80
2023-02-09T10:56:05.432Z,101062.77
2023-02-09T10:59:21.806Z,101061.39
2023-02-09T11:02:30.568Z,101059.04
2023-02-09T11:05:34.764Z,101048.51
2023-02-09T11:08:40.608Z,101047.45
2023-02-09T11:11:43.828Z,101045.10
2023-02-09T11:14:46.460Z,101043.88
2023-02-09T11:17:59.631Z,101039.65
2023-02-09T11:21:22.514Z,101038.38
2023-02-09T11:24:37.348Z,101031.68
2023-02-09T11:28:02.885Z,101033.10
2023-02-09T11:31:08.465Z,101031.41
2023-02-09T11:34:18.729Z,101030.52
2023-02-09T11:37:28.289Z,101028.35
2023-02-09T11:40:42.564Z,101024.36
2023-02-09T11:43:46.259Z,101025.42
2023-02-09T11:46:49.423Z,101023.70
2023-02-09T11:49:54.019Z,101022.53
2023-02-09T11:52:59.327Z,101025.05
2023-02-09T11:56:04.730Z,101019.23
2023-02-09T11:59:26.728Z,101017.52
2023-02-09T12:02:53.571Z,101013.79
2023-02-09T12:05:57.409Z,101013.91
2023-02-09T12:09:18.399Z,101013.29
2023-02-09T12:12:37.644Z,101010.67
2023-02-09T12:15:52.432Z,100999.48
2023-02-09T12:18:55.528Z,100993.34
2023-02-09T12:21:58.549Z,100991.50
2023-02-09T12:25:19.833Z,100989.38
2023-02-09T12:28:25.322Z,100988.49
2023-02-09T12:31:28.273Z,100983.54
2023-02-09T12:34:31.210Z,100981.46
2023-02-09T12:37:33.814Z,100976.16
2023-02-09T12:40:37.953Z,100971.15
2023-02-09T12:43:41.538Z,100964.00
2023-02-09T12:46:44.156Z,100961.36
2023-02-09T12:49:46.990Z,100959.48
2023-02-09T12:53:08.448Z,100955.64
2023-02-09T12:56:14.027Z,100953.76
2023-02-09T12:59:18.942Z,100948.83
2023-02-09T13:02:26.172Z,100949.95
2023-02-09T13:05:28.911Z,100946.75
2023-02-09T13:08:36.330Z,100944.95
2023-02-09T13:12:05.354Z,100947.48
2023-02-09T13:15:18.420Z,100945.17
2023-02-09T13:18:30.379Z,100944.14
2023-02-09T13:21:42.518Z,100938.50
2023-02-09T13:24:52.330Z,100941.11
2023-02-09T13:27:55.078Z,100936.82
2023-02-09T13:30:57.774Z,100926.98
2023-02-09T13:34:03.593Z,100921.87
2023-02-09T13:37:22.079Z,100913.55
2023-02-09T13:40:29.719Z,100912.25
2023-02-09T13:43:35.079Z,100904.50
2023-02-09T13:46:39.363Z,100903.20
2023-02-09T13:49:42.581Z,100899.35
2023-02-09T13:52:45.468Z,100896.88
2023-02-09T13:55:49.744Z,100892.83
2023-02-09T13:58:53.376Z,100890.13
2023-02-09T14:01:56.089Z,100887.29
2023-02-09T14:05:01.225Z,100891.55
2023-02-09T14:08:04.106Z,100884.93
2023-02-09T14:11:15.891Z,100887.12
2023-02-09T14:14:25.221Z,100884.09
2023-02-09T14:17:27.887Z,100879.61
2023-02-09T14:20:30.682Z,100876.63
2023-02-09T14:23:35.228Z,100871.52
2023-02-09T14:26:49.058Z,100873.70
2023-02-09T14:29:52.339Z,100865.91
2023-02-09T14:32:56.519Z,100861.88
2023-02-09T14:35:59.797Z,100858.05
2023-02-09T14:39:22.819Z,100858.10
2023-02-09T14:42:25.605Z,100854.45
2023-02-09T14:45:39.784Z,100852.60
2023-02-09T14:48:42.368Z,100854.11
2023-02-09T14:51:45.556Z,100851.58
2023-02-09T14:54:49.407Z,100847.95
2023-02-09T14:57:52.075Z,100839.52
2023-02-09T15:00:56.180Z,100838.39
2023-02-09T15:03:58.867Z,100838.36
2023-02-09T15:07:03.072Z,100838.29
2023-02-09T15:10:07.574Z,100840.95
2023-02-09T15:13:12.210Z,100833.70
2023-02-09T15:16:16.850Z,100829.91
2023-02-09T15:19:22.653Z,100827.04
2023-02-09T15:22:25.383Z,100829.64
2023-02-09T15:25:29.084Z,100829.79
2023-02-09T15:28:33.621Z,100830.70
2023-02-09T15:31:36.397Z,100831.98
2023-02-09T15:34:39.083Z,100831.68
2023-02-09T15:37:42.302Z,100829.82
2023-02-09T15:41:04.749Z,100831.17
2023-02-09T15:44:34.640Z,100838.00
2023-02-09T15:47:49.505Z,100840.36
2023-02-09T15:50:52.152Z,100843.20
2023-02-09T15:53:56.446Z,100846.91
2023-02-09T15:57:00.547Z,100847.72
2023-02-09T16:00:03.615Z,100846.47
2023-02-09T16:03:13.842Z,100843.08
2023-02-09T16:06:16.567Z,100842.11
2023-02-09T16:09:22.077Z,100840.37
2023-02-09T16:12:24.752Z,100842.27
2023-02-09T16:15:27.466Z,100836.87
2023-02-09T16:18:30.098Z,100832.29
2023-02-09T16:21:33.726Z,100828.93
2023-02-09T16:24:39.166Z,100826.84
2023-02-09T16:27:41.816Z,100826.52
2023-02-09T16:30:49.669Z,100822.19
2023-02-09T16:33:52.588Z,100824.08
2023-02-09T16:36:55.348Z,100817.10
2023-02-09T16:40:01.190Z,100812.35
2023-02-09T16:43:04.214Z,100808.02
2023-02-09T16:46:07.287Z,100806.36
2023-02-09T16:49:24.878Z,100806.72
2023-02-09T16:52:27.815Z,100798.80
2023-02-09T16:55:31.843Z,100796.56
2023-02-09T16:58:34.604Z,100798.23
2023-02-09T17:01:38.047Z,100795.17
2023-02-09T17:04:40.725Z,100791.17
2023-02-09T17:07:53.896Z,100784.02
2023-02-09T17:10:57.501Z,100780.08
2023-02-09T17:14:00.095Z,100776.12
2023-02-09T17:17:02.916Z,100767.05
2023-02-09T17:20:05.869Z,100760.01
2023-02-09T17:23:13.675Z,100754.30
2023-02-09T17:26:16.660Z,100758.24
2023-02-09T17:29:21.375Z,100754.95
2023-02-09T17:32:24.140Z,100760.30
2023-02-09T17:35:52.994Z,100762.63
2023-02-09T17:38:50.532Z,100764.02
2023-02-09T17:41:53.288Z,100763.31
2023-02-09T17:44:57.572Z,100757.34
2023-02-09T17:48:02.262Z,100761.10
2023-02-09T17:51:07.101Z,100758.53
2023-02-09T17:54:18.727Z,100760.38
2023-02-09T17:57:21.388Z,100757.04
2023-02-09T18:00:24.950Z,100759.15
2023-02-09T18:03:27.594Z,100756.45
2023-02-09T18:06:39.942Z,100754.36
2023-02-09T18:09:42.611Z,100750.77
2023-02-09T18:12:45.844Z,100742.71
2023-02-09T18:15:48.795Z,100740.21
2023-02-09T18:18:51.711Z,100728.18
2023-02-09T18:21:59.118Z,100724.64
2023-02-09T18:25:01.862Z,100720.02
2023-02-09T18:28:05.613Z,100721.75
2023-02-09T18:31:14.218Z,100723.91
2023-02-09T18:34:17.066Z,100724.34
2023-02-09T18:37:19.718Z,100725.54
2023-02-09T18:40:22.341Z,100720.45
2023-02-09T18:43:25.085Z,100719.21
2023-02-09T18:46:28.122Z,100720.56
2023-02-09T18:49:30.897Z,100719.20
2023-02-09T18:52:34.705Z,100715.44
2023-02-09T18:55:37.336Z,100706.61
2023-02-09T18:58:40.101Z,100700.91
2023-02-09T19:01:42.782Z,100702.23
2023-02-09T19:04:45.505Z,100702.02
2023-02-09T19:07:48.923Z,100693.65
2023-02-09T19:10:51.698Z,100684.48
2023-02-09T19:14:13.252Z,100679.59
2023-02-09T19:17:17.394Z,100676.31
2023-02-09T19:20:24.382Z,100680.89
2023-02-09T19:23:27.388Z,100681.41
2023-02-09T19:26:30.105Z,100679.69
2023-02-09T19:29:34.197Z,100677.67
2023-02-09T19:32:37.120Z,100670.49
2023-02-09T19:35:39.739Z,100671.17
2023-02-09T19:38:43.019Z,100673.14
2023-02-09T19:41:47.262Z,100670.79
2023-02-09T19:44:50.364Z,100664.65
2023-02-09T19:47:53.043Z,100658.79
2023-02-09T19:50:57.119Z,100651.05
2023-02-09T19:53:59.803Z,100643.55
2023-02-09T19:57:04.434Z,100641.26
2023-02-09T20:00:07.331Z,100642.88
2023-02-09T20:03:12.979Z,100635.21
2023-02-09T20:06:16.052Z,100635.00
2023-02-09T20:09:18.665Z,100639.05
2023-02-09T20:12:22.181Z,100656.52
2023-02-09T20:15:25.180Z,100672.41
2023-02-09T20:18:27.966Z,100672.27
2023-02-09T20:21:31.252Z,100665.03
2023-02-09T20:24:33.948Z,100661.58
2023-02-09T20:27:36.694Z,100656.32
2023-02-09T20:30:46.270Z,100647.21
2023-02-09T20:33:49.082Z,100634.48
2023-02-09T20:36:51.749Z,100630.23
2023-02-09T20:39:54.466Z,100642.84
2023-02-09T20:43:15.965Z,100658.55
2023-02-09T20:46:38.169Z,100663.71
2023-02-09T20:49:40.901Z,100668.34
2023-02-09T20:52:45.750Z,100668.88
2023-02-09T20:55:48.643Z,100674.27
2023-02-09T20:58:51.289Z,100676.67
2023-02-09T21:01:54.049Z,100680.88
2023-02-09T21:04:57.176Z,100682.36
2023-02-09T21:08:01.925Z,100676.71
2023-02-09T21:11:05.175Z,100660.95
2023-02-09T21:14:13.483Z,100660.55
2023-02-09T21:17:24.977Z,100652.99
2023-02-09T21:20:33.593Z,100649.35
2023-02-09T21:23:36.677Z,100645.67
2023-02-09T21:26:41.376Z,100639.95
2023-02-09T21:29:45.798Z,100632.61
2023-02-09T21:32:48.431Z,100632.47
2023-02-09T21:35:51.702Z,100642.82
2023-02-09T21:38:54.347Z,100649.19
2023-02-09T21:42:19.292Z,100645.40
2023-02-09T21:45:21.973Z,100639.80
2023-02-09T21:48:24.593Z,100648.92
2023-02-09T21:51:27.261Z,100664.55
2023-02-09T21:54:33.986Z,100663.81
2023-02-09T21:57:37.887Z,100662.81
2023-02-09T22:00:40.881Z,100659.31
2023-02-09T22:03:43.603Z,100651.62
2023-02-09T22:06:47.659Z,100655.91
2023-02-09T22:09:50.302Z,100657.11
2023-02-09T22:12:55.935Z,100663.13
2023-02-09T22:15:58.556Z,100659.89
2023-02-09T22:19:01.347Z,100655.80
2023-02-09T22:22:04.550Z,100652.39
2023-02-09T22:25:07.634Z,100651.86
2023-02-09T22:28:10.433Z,100645.23
2023-02-09T22:31:14.602Z,100648.63
2023-02-09T22:34:17.292Z,100645.21
2023-02-09T22:37:19.975Z,100654.70
2023-02-09T22:40:22.641Z,100648.23
2023-02-09T22:43:25.236Z,100650.80
2023-02-09T22:46:38.313Z,100653.45
2023-02-09T22:49:41.754Z,100650.60
2023-02-09T22:52:44.550Z,100652.33
2023-02-09T22:55:48.524Z,100647.74
2023-02-09T22:58:55.036Z,100646.02
2023-02-09T23:01:57.716Z,100652.15
2023-02-09T23:05:00.489Z,100657.27
2023-02-09T23:08:03.466Z,100657.85
2023-02-09T23:11:07.767Z,100664.95
2023-02-09T23:14:11.446Z,100665.52
2023-02-09T23:17:14.434Z,100673.34
2023-02-09T23:20:17.092Z,100664.46
2023-02-09T23:23:19.741Z,100655.45
2023-02-09T23:26:22.513Z,100659.59
2023-02-09T23:29:25.177Z,100660.11
2023-02-09T23:32:27.867Z,100649.52
2023-02-09T23:35:30.513Z,100645.88
2023-02-09T23:38:33.189Z,100639.40
2023-02-09T23:41:35.850Z,100641.71
2023-02-09T23:44:38.478Z,100637.39
2023-02-09T23:47:41.307Z,100630.14
2023-02-09T23:50:44.060Z,100629.70
2023-02-09T23:53:47.548Z,100623.63
2023-02-09T23:56:50.555Z,100631.42
2023-02-09T23:59:53.338Z,100629.45
